createdAt,value
2022-11-08T00:01:23.749Z,20.00
2022-11-08T00:06:35.503Z,24.90
2022-11-08T00:11:47.610Z,24.65
2022-11-08T00:16:41.279Z,30.35
2022-11-08T00:21:34.853Z,31.17
2022-11-08T00:26:28.630Z,27.67
2022-11-08T00:31:22.398Z,23.67
2022-11-08T00:36:16.483Z,18.90
2022-11-08T00:41:10.720Z,21.65
2022-11-08T00:46:04.414Z,21.27
2022-11-08T00:51:01.663Z,22.55
2022-11-08T00:56:05.982Z,27.33
2022-11-08T01:00:59.540Z,21.88
2022-11-08T01:05:55.048Z,23.88
2022-11-08T01:10:50.497Z,23.00
2022-11-08T01:15:45.882Z,29.30
2022-11-08T01:20:42.383Z,27.02
2022-11-08T01:25:38.214Z,27.55
2022-11-08T01:30:31.227Z,22.95
2022-11-08T01:35:24.776Z,25.92
2022-11-08T01:40:18.183Z,25.10
2022-11-08T01:45:12.383Z,23.73
2022-11-08T01:50:12.612Z,24.55
2022-11-08T01:55:11.026Z,20.17
2022-11-08T02:00:08.708Z,20.25
2022-11-08T02:05:04.502Z,24.77
2022-11-08T02:09:58.439Z,25.80
2022-11-08T02:14:51.577Z,22.77
2022-11-08T02:19:50.013Z,29.15
2022-11-08T02:24:44.321Z,26.30
2022-11-08T02:29:37.989Z,26.98
2022-11-08T02:34:47.003Z,32.03
2022-11-08T02:39:40.530Z,35.33
2022-11-08T02:44:33.285Z,32.72
2022-11-08T02:49:27.231Z,30.65
2022-11-08T02:54:20.820Z,28.25
2022-11-08T02:59:13.862Z,40.35
2022-11-08T03:04:07.624Z,31.33
2022-11-08T03:09:00.623Z,30.77
2022-11-08T03:13:53.607Z,29.10
2022-11-08T03:18:47.238Z,25.17
2022-11-08T03:23:40.698Z,24.65
2022-11-08T03:28:34.824Z,29.02
2022-11-08T03:33:27.868Z,22.52
2022-11-08T03:38:20.607Z,37.63
2022-11-08T03:43:14.628Z,22.40
2022-11-08T03:48:09.076Z,20.35
2022-11-08T03:53:02.531Z,22.35
2022-11-08T03:57:56.581Z,17.38
2022-11-08T04:02:50.212Z,20.13
2022-11-08T04:07:43.678Z,19.35
2022-11-08T04:13:02.175Z,19.33
2022-11-08T04:18:14.145Z,19.48
2022-11-08T04:23:08.062Z,21.30
2022-11-08T04:28:01.598Z,20.50
2022-11-08T04:32:55.429Z,21.33
2022-11-08T04:37:49.090Z,19.02
2022-11-08T04:42:45.207Z,22.70
2022-11-08T04:47:42.067Z,22.90
2022-11-08T04:52:38.243Z,29.65
2022-11-08T04:57:31.839Z,23.27
2022-11-08T05:02:26.606Z,22.13
2022-11-08T05:07:22.035Z,22.17
2022-11-08T05:12:15.370Z,18.90
2022-11-08T05:17:09.192Z,19.00
2022-11-08T05:22:21.581Z,18.38
2022-11-08T05:27:15.414Z,19.55
2022-11-08T05:32:09.345Z,17.02
2022-11-08T05:37:02.646Z,17.15
2022-11-08T05:41:56.543Z,18.75
2022-11-08T05:46:49.771Z,15.80
2022-11-08T05:51:43.647Z,17.02
2022-11-08T05:56:37.579Z,19.83
2022-11-08T06:01:30.685Z,23.40
2022-11-08T06:06:23.845Z,22.17
2022-11-08T06:11:25.662Z,18.75
2022-11-08T06:16:19.871Z,17.45
2022-11-08T06:21:14.975Z,19.10
2022-11-08T06:26:09.322Z,19.55
2022-11-08T06:31:03.592Z,16.55
2022-11-08T06:35:57.344Z,20.02
2022-11-08T06:40:51.752Z,20.38
2022-11-08T06:45:44.297Z,20.05
2022-11-08T06:50:38.689Z,21.05
2022-11-08T06:55:32.067Z,20.40
2022-11-08T07:00:25.410Z,21.10
2022-11-08T07:05:20.209Z,21.55
2022-11-08T07:10:14.583Z,18.88
2022-11-08T07:15:10.254Z,26.35
2022-11-08T07:20:03.890Z,25.08
2022-11-08T07:24:58.024Z,26.48
2022-11-08T07:29:52.244Z,34.42
2022-11-08T07:34:46.680Z,34.33
2022-11-08T07:39:40.431Z,26.67
2022-11-08T07:44:34.569Z,48.83
2022-11-08T07:49:28.302Z,36.47
2022-11-08T07:54:22.081Z,33.55
2022-11-08T07:59:17.107Z,30.15
2022-11-08T08:04:12.880Z,31.25
2022-11-08T08:09:06.576Z,25.67
2022-11-08T08:14:01.006Z,27.05
2022-11-08T08:18:56.731Z,25.50
2022-11-08T08:23:51.203Z,30.52
2022-11-08T08:28:45.042Z,21.88
2022-11-08T08:33:38.419Z,38.67
2022-11-08T08:38:32.529Z,27.90
2022-11-08T08:43:27.994Z,26.45
2022-11-08T08:48:22.740Z,23.80
2022-11-08T08:53:16.759Z,24.08
2022-11-08T08:58:11.471Z,23.45
2022-11-08T09:03:12.033Z,25.02
2022-11-08T09:08:07.056Z,32.55
2022-11-08T09:13:02.638Z,22.38
2022-11-08T09:17:56.845Z,28.17
2022-11-08T09:22:50.159Z,30.77
2022-11-08T09:27:44.404Z,27.92
2022-11-08T09:33:02.712Z,26.85
2022-11-08T09:37:50.797Z,29.13
2022-11-08T09:43:20.033Z,24.98
2022-11-08T09:48:27.288Z,26.50
2022-11-08T09:53:27.198Z,26.65
2022-11-08T09:58:37.422Z,24.23
2022-11-08T10:03:31.034Z,25.48
2022-11-08T10:09:05.863Z,26.50
2022-11-08T10:14:16.920Z,29.52
2022-11-08T10:19:35.247Z,29.40
2022-11-08T10:24:54.290Z,27.97
2022-11-08T10:29:47.932Z,28.38
2022-11-08T10:34:57.613Z,27.92
2022-11-08T10:40:06.357Z,27.08
2022-11-08T10:45:00.627Z,29.27
2022-11-08T10:49:57.218Z,27.02
2022-11-08T10:59:47.280Z,27.38
2022-11-08T11:04:41.839Z,26.42
2022-11-08T11:09:35.822Z,28.02
2022-11-08T11:14:29.600Z,34.67
2022-11-08T11:19:46.052Z,28.50
2022-11-08T11:24:50.824Z,27.80
2022-11-08T11:30:41.435Z,27.98
2022-11-08T11:35:41.101Z,27.20
2022-11-08T11:40:44.902Z,31.17
2022-11-08T11:45:47.118Z,28.80
2022-11-08T11:50:42.449Z,31.27
2022-11-08T11:56:00.853Z,32.15
2022-11-08T12:01:14.503Z,29.27
2022-11-08T12:06:32.977Z,33.28
2022-11-08T12:11:55.155Z,29.08
2022-11-08T12:17:04.461Z,29.15
2022-11-08T12:22:28.082Z,26.10
2022-11-08T12:27:41.455Z,29.35
2022-11-08T12:32:55.106Z,27.83
2022-11-08T12:37:51.410Z,26.48
2022-11-08T12:43:10.767Z,28.48
2022-11-08T12:48:31.868Z,31.33
2022-11-08T12:53:49.551Z,31.02
2022-11-08T12:58:46.895Z,29.30
2022-11-08T13:03:43.701Z,31.60
2022-11-08T13:08:45.140Z,29.83
2022-11-08T13:14:01.025Z,28.48
2022-11-08T13:18:59.420Z,30.98
2022-11-08T13:23:53.475Z,30.55
2022-11-08T13:28:47.170Z,27.23
2022-11-08T13:34:06.011Z,30.30
2022-11-08T13:39:19.765Z,29.93
2022-11-08T13:44:51.692Z,28.73
2022-11-08T13:49:45.458Z,35.35
2022-11-08T13:54:51.795Z,30.85
2022-11-08T13:59:44.656Z,32.28
2022-11-08T14:04:41.072Z,32.72
2022-11-08T14:09:42.923Z,34.20
2022-11-08T14:14:47.793Z,31.38
2022-11-08T14:19:42.899Z,33.30
2022-11-08T14:24:58.918Z,32.60
2022-11-08T14:30:33.904Z,34.65
2022-11-08T14:35:27.654Z,29.75
2022-11-08T14:40:26.008Z,33.55
2022-11-08T14:45:25.491Z,37.90
2022-11-08T14:50:23.565Z,34.15
2022-11-08T14:55:23.429Z,33.97
2022-11-08T15:00:21.891Z,37.53
2022-11-08T15:05:31.134Z,33.90
2022-11-08T15:10:25.522Z,34.95
2022-11-08T15:15:27.384Z,39.97
2022-11-08T15:20:22.796Z,33.42
2022-11-08T15:25:15.183Z,36.05
2022-11-08T15:30:09.522Z,34.67
2022-11-08T15:35:03.190Z,35.42
2022-11-08T15:39:56.703Z,35.70
2022-11-08T15:45:00.224Z,36.05
2022-11-08T15:49:54.801Z,35.53
2022-11-08T15:54:48.688Z,40.70
2022-11-08T15:59:42.310Z,35.97
2022-11-08T16:04:36.974Z,35.08
2022-11-08T16:09:30.754Z,41.20
2022-11-08T16:14:25.802Z,45.33
2022-11-08T16:19:24.126Z,38.78
2022-11-08T16:24:17.351Z,39.03
2022-11-08T16:29:23.669Z,36.58
2022-11-08T16:34:17.440Z,45.10
2022-11-08T16:39:16.688Z,46.30
2022-11-08T16:44:10.825Z,45.20
2022-11-08T16:49:06.828Z,39.17
2022-11-08T16:54:01.206Z,39.85
2022-11-08T16:58:55.885Z,43.05
2022-11-08T17:03:50.008Z,39.60
2022-11-08T17:08:49.967Z,44.88
2022-11-08T17:13:44.428Z,46.03
2022-11-08T17:18:37.387Z,46.97
2022-11-08T17:23:31.247Z,44.58
2022-11-08T17:28:25.144Z,49.22
2022-11-08T17:33:19.424Z,48.70
2022-11-08T17:38:16.472Z,46.35
2022-11-08T17:43:10.670Z,47.70
2022-11-08T17:48:04.091Z,48.03
2022-11-08T17:52:58.557Z,45.05
2022-11-08T17:57:52.427Z,45.60
2022-11-08T18:02:47.219Z,51.78
2022-11-08T18:07:41.593Z,48.42
2022-11-08T18:12:36.124Z,44.17
2022-11-08T18:17:29.934Z,46.03
2022-11-08T18:22:24.654Z,48.60
2022-11-08T18:27:18.725Z,53.40
2022-11-08T18:32:13.419Z,59.63
2022-11-08T18:37:08.076Z,58.78
2022-11-08T18:42:01.815Z,61.97
2022-11-08T18:46:56.340Z,92.93
2022-11-08T18:51:53.004Z,85.88
2022-11-08T18:56:47.789Z,70.35
2022-11-08T19:01:41.684Z,81.20
2022-11-08T19:06:37.162Z,72.22
2022-11-08T19:11:35.209Z,71.60
2022-11-08T19:21:29.448Z,71.20
2022-11-08T19:26:27.035Z,61.38
2022-11-08T19:31:23.040Z,63.72
2022-11-08T19:36:21.263Z,66.57
2022-11-08T19:41:15.773Z,60.92
2022-11-08T19:46:14.897Z,61.47
2022-11-08T19:51:17.837Z,54.67
2022-11-08T19:56:13.405Z,51.38
2022-11-08T20:01:15.671Z,54.08
2022-11-08T20:06:10.015Z,64.10
2022-11-08T20:11:14.124Z,58.05
2022-11-08T20:16:24.757Z,61.67
2022-11-08T20:21:25.850Z,64.07
2022-11-08T20:26:21.903Z,65.43
2022-11-08T20:31:20.349Z,66.57
2022-11-08T20:36:18.036Z,71.63
2022-11-08T20:41:14.710Z,57.25
2022-11-08T20:46:15.801Z,61.53
2022-11-08T20:51:09.395Z,54.92
2022-11-08T20:56:12.619Z,52.63
2022-11-08T21:01:07.098Z,50.80
2022-11-08T21:06:02.933Z,50.08
2022-11-08T21:10:56.682Z,54.88
2022-11-08T21:15:50.183Z,61.15
2022-11-08T21:20:44.607Z,58.85
2022-11-08T21:25:39.308Z,58.78
2022-11-08T21:30:33.707Z,55.83
2022-11-08T21:35:26.137Z,55.33
2022-11-08T21:40:21.280Z,52.70
2022-11-08T21:45:14.302Z,56.67
2022-11-08T21:50:10.880Z,53.25
2022-11-08T21:55:06.001Z,84.53
2022-11-08T21:59:58.845Z,60.42
2022-11-08T22:04:53.231Z,69.45
2022-11-08T22:09:47.887Z,61.00
2022-11-08T22:14:42.349Z,65.05
2022-11-08T22:19:34.830Z,58.95
2022-11-08T22:24:28.873Z,63.80
2022-11-08T22:29:22.832Z,57.83
2022-11-08T22:34:16.759Z,59.17
2022-11-08T22:39:12.912Z,60.67
2022-11-08T22:44:11.737Z,60.00
2022-11-08T22:49:06.830Z,56.40
2022-11-08T22:54:00.410Z,53.25
2022-11-08T22:58:54.158Z,54.78
2022-11-08T23:03:47.902Z,57.17
2022-11-08T23:08:41.530Z,59.17
2022-11-08T23:13:57.882Z,57.20
2022-11-08T23:19:13.999Z,53.72
2022-11-08T23:24:21.390Z,57.05
2022-11-08T23:29:34.381Z,60.00
2022-11-08T23:34:28.982Z,48.67
2022-11-08T23:39:23.660Z,56.17
2022-11-08T23:44:25.330Z,55.30
2022-11-08T23:49:18.993Z,58.05
2022-11-08T23:54:12.654Z,57.17
2022-11-08T23:59:05.884Z,55.72
